createdAt,value
2023-03-03T00:01:36.147Z,1.55
2023-03-03T00:04:02.839Z,1.60
2023-03-03T00:06:30.601Z,1.40
2023-03-03T00:08:58.079Z,1.36
2023-03-03T00:11:24.518Z,1.37
2023-03-03T00:13:54.809Z,1.40
2023-03-03T00:16:37.356Z,1.36
2023-03-03T00:19:12.967Z,1.35
2023-03-03T00:21:46.619Z,1.27
2023-03-03T00:24:24.795Z,1.27
2023-03-03T00:26:55.706Z,1.26
2023-03-03T00:29:30.903Z,1.20
2023-03-03T00:32:23.184Z,1.19
2023-03-03T00:34:54.388Z,1.17
2023-03-03T00:37:24.005Z,1.17
2023-03-03T00:39:50.468Z,1.04
2023-03-03T00:42:18.509Z,1.08
2023-03-03T00:44:56.203Z,1.22
2023-03-03T00:47:38.303Z,1.25
2023-03-03T00:50:07.764Z,1.10
2023-03-03T00:52:41.136Z,1.10
2023-03-03T00:55:08.701Z,1.07
2023-03-03T00:57:35.349Z,1.18
2023-03-03T01:00:01.920Z,1.27
2023-03-03T01:02:28.420Z,1.21
2023-03-03T01:04:57.654Z,1.21
2023-03-03T01:07:24.446Z,1.12
2023-03-03T01:09:51.063Z,1.20
2023-03-03T01:12:18.101Z,1.07
2023-03-03T01:14:46.092Z,0.86
2023-03-03T01:17:12.865Z,0.83
2023-03-03T01:19:39.330Z,0.78
2023-03-03T01:22:05.824Z,0.78
2023-03-03T01:24:32.239Z,0.89
2023-03-03T01:26:58.711Z,0.83
2023-03-03T01:29:25.235Z,0.81
2023-03-03T01:31:51.757Z,0.87
2023-03-03T01:34:18.198Z,0.82
2023-03-03T01:36:44.936Z,0.87
2023-03-03T01:39:12.310Z,0.87
2023-03-03T01:41:39.819Z,0.99
2023-03-03T01:44:06.437Z,1.00
2023-03-03T01:46:42.361Z,1.04
2023-03-03T01:49:17.673Z,1.00
2023-03-03T01:52:12.997Z,1.08
2023-03-03T01:54:50.547Z,0.94
2023-03-03T01:57:25.321Z,0.81
2023-03-03T01:59:55.336Z,0.55
2023-03-03T02:02:22.526Z,0.61
2023-03-03T02:04:50.319Z,0.51
2023-03-03T02:07:18.900Z,0.52
2023-03-03T02:10:05.406Z,0.44
2023-03-03T02:12:39.285Z,0.52
2023-03-03T02:15:33.330Z,0.70
2023-03-03T02:18:04.264Z,0.74
2023-03-03T02:20:30.644Z,0.84
2023-03-03T02:23:06.285Z,0.79
2023-03-03T02:26:02.812Z,0.59
2023-03-03T02:28:32.648Z,0.64
2023-03-03T02:31:01.110Z,0.62
2023-03-03T02:33:32.206Z,0.57
2023-03-03T02:35:58.677Z,0.51
2023-03-03T02:38:32.393Z,0.56
2023-03-03T02:40:58.990Z,0.62
2023-03-03T02:44:05.896Z,0.52
2023-03-03T02:46:43.806Z,0.47
2023-03-03T02:49:13.146Z,0.37
2023-03-03T02:51:40.437Z,0.27
2023-03-03T02:54:08.579Z,0.28
2023-03-03T02:56:35.567Z,0.04
2023-03-03T02:59:02.329Z,0.07
2023-03-03T03:01:31.768Z,0.18
2023-03-03T03:03:58.985Z,0.11
2023-03-03T03:06:25.647Z,0.06
2023-03-03T03:08:55.486Z,0.01
2023-03-03T03:11:21.953Z,-0.01
2023-03-03T03:13:48.397Z,-0.04
2023-03-03T03:16:14.835Z,-0.09
2023-03-03T03:18:41.394Z,-0.11
2023-03-03T03:21:14.034Z,-0.01
2023-03-03T03:23:41.069Z,-0.04
2023-03-03T03:26:08.341Z,0.12
2023-03-03T03:28:35.611Z,0.10
2023-03-03T03:31:02.663Z,0.12
2023-03-03T03:33:29.329Z,0.14
2023-03-03T03:35:57.219Z,0.12
2023-03-03T03:38:25.818Z,0.18
2023-03-03T03:40:54.721Z,0.25
2023-03-03T03:43:22.925Z,0.21
2023-03-03T03:45:49.565Z,0.21
2023-03-03T03:48:17.624Z,0.21
2023-03-03T03:50:44.139Z,0.08
2023-03-03T03:53:10.685Z,0.12
2023-03-03T03:55:37.224Z,0.20
2023-03-03T03:58:03.751Z,0.30
2023-03-03T04:00:30.435Z,0.26
2023-03-03T04:02:57.050Z,0.14
2023-03-03T04:05:23.662Z,0.08
2023-03-03T04:07:50.536Z,0.02
2023-03-03T04:10:18.217Z,0.02
2023-03-03T04:12:44.743Z,0.07
2023-03-03T04:15:13.117Z,-0.02
2023-03-03T04:17:40.122Z,-0.12
2023-03-03T04:20:07.597Z,-0.15
2023-03-03T04:22:35.989Z,-0.30
2023-03-03T04:25:05.380Z,-0.37
2023-03-03T04:27:33.530Z,-0.42
2023-03-03T04:30:01.483Z,-0.40
2023-03-03T04:32:28.108Z,-0.29
2023-03-03T04:35:05.785Z,-0.34
2023-03-03T04:37:34.174Z,-0.28
2023-03-03T04:40:00.706Z,-0.37
2023-03-03T04:42:29.247Z,-0.38
2023-03-03T04:44:55.782Z,-0.40
2023-03-03T04:47:22.411Z,-0.50
2023-03-03T04:49:48.892Z,-0.57
2023-03-03T04:52:15.405Z,-0.54
2023-03-03T04:54:42.346Z,-0.68
2023-03-03T04:57:09.820Z,-0.57
2023-03-03T04:59:36.928Z,-0.48
2023-03-03T05:02:05.347Z,-0.55
2023-03-03T05:04:32.349Z,-0.54
2023-03-03T05:06:58.960Z,-0.52
2023-03-03T05:09:25.460Z,-0.69
2023-03-03T05:11:52.189Z,-0.56
2023-03-03T05:14:18.641Z,-0.51
2023-03-03T05:16:45.161Z,-0.46
2023-03-03T05:19:11.742Z,-0.55
2023-03-03T05:21:42.400Z,-0.54
2023-03-03T05:24:09.890Z,-0.59
2023-03-03T05:26:36.448Z,-0.75
2023-03-03T05:29:04.466Z,-0.78
2023-03-03T05:31:31.089Z,-0.73
2023-03-03T05:33:57.686Z,-0.80
2023-03-03T05:36:24.879Z,-0.82
2023-03-03T05:38:53.661Z,-0.85
2023-03-03T05:41:20.665Z,-0.90
2023-03-03T05:43:53.250Z,-0.84
2023-03-03T05:46:19.832Z,-0.85
2023-03-03T05:48:47.301Z,-0.84
2023-03-03T05:51:14.060Z,-0.88
2023-03-03T05:53:40.860Z,-0.87
2023-03-03T05:56:07.443Z,-0.89
2023-03-03T05:58:34.936Z,-0.94
2023-03-03T06:01:01.454Z,-1.04
2023-03-03T06:03:28.001Z,-0.97
2023-03-03T06:05:54.677Z,-0.99
2023-03-03T06:08:22.161Z,-0.93
2023-03-03T06:10:48.612Z,-0.92
2023-03-03T06:13:15.224Z,-0.84
2023-03-03T06:15:41.702Z,-0.86
2023-03-03T06:18:09.054Z,-0.80
2023-03-03T06:20:45.832Z,-0.71
2023-03-03T06:23:12.235Z,-0.75
2023-03-03T06:25:39.612Z,-0.83
2023-03-03T06:28:06.054Z,-0.66
2023-03-03T06:30:32.580Z,-0.50
2023-03-03T06:32:59.102Z,-0.22
2023-03-03T06:35:25.711Z,-0.20
2023-03-03T06:37:52.275Z,-0.20
2023-03-03T06:40:18.905Z,0.24
2023-03-03T06:42:45.668Z,0.56
2023-03-03T06:45:12.612Z,0.54
2023-03-03T06:47:39.072Z,0.53
2023-03-03T06:50:06.367Z,0.74
2023-03-03T06:52:32.814Z,1.00
2023-03-03T06:55:02.112Z,1.62
2023-03-03T06:57:31.174Z,1.66
2023-03-03T07:00:16.504Z,1.97
2023-03-03T07:02:43.261Z,2.77
2023-03-03T07:05:15.479Z,3.10
2023-03-03T07:07:43.607Z,3.73
2023-03-03T07:10:29.210Z,4.27
2023-03-03T07:13:06.928Z,4.79
2023-03-03T07:15:35.442Z,5.19
2023-03-03T07:18:03.292Z,5.28
2023-03-03T07:20:38.330Z,5.41
2023-03-03T07:23:23.258Z,5.64
2023-03-03T07:25:51.001Z,5.78
2023-03-03T07:28:24.581Z,5.94
2023-03-03T07:30:53.248Z,5.95
2023-03-03T07:33:45.321Z,6.07
2023-03-03T07:36:37.746Z,6.45
2023-03-03T07:39:42.086Z,6.26
2023-03-03T07:42:34.789Z,6.49
2023-03-03T07:45:02.399Z,6.90
2023-03-03T07:47:35.407Z,6.96
2023-03-03T07:50:16.536Z,7.05
2023-03-03T07:53:00.703Z,6.93
2023-03-03T07:55:31.533Z,6.70
2023-03-03T07:58:16.550Z,6.72
2023-03-03T08:00:42.983Z,6.57
2023-03-03T08:03:20.902Z,6.40
2023-03-03T08:05:49.278Z,6.78
2023-03-03T08:08:36.848Z,7.21
2023-03-03T08:11:05.472Z,7.82
2023-03-03T08:13:34.941Z,7.71
2023-03-03T08:16:04.793Z,7.98
2023-03-03T08:18:48.481Z,7.39
2023-03-03T08:21:18.034Z,7.83
2023-03-03T08:23:45.905Z,8.00
2023-03-03T08:26:17.030Z,7.93
2023-03-03T08:28:45.374Z,7.91
2023-03-03T08:31:22.360Z,8.40
2023-03-03T08:33:54.345Z,8.55
2023-03-03T08:36:21.440Z,9.09
2023-03-03T08:38:48.039Z,9.05
2023-03-03T08:41:15.705Z,8.26
2023-03-03T08:43:48.329Z,8.83
2023-03-03T08:46:14.897Z,8.69
2023-03-03T08:48:47.670Z,9.15
2023-03-03T08:51:14.745Z,9.16
2023-03-03T08:53:48.714Z,9.67
2023-03-03T08:56:15.191Z,9.62
2023-03-03T08:59:01.342Z,10.04
2023-03-03T09:01:28.602Z,10.08
2023-03-03T09:03:55.243Z,9.96
2023-03-03T09:06:21.766Z,10.23
2023-03-03T09:08:48.643Z,10.48
2023-03-03T09:11:24.774Z,10.43
2023-03-03T09:14:06.334Z,10.60
2023-03-03T09:16:37.986Z,10.70
2023-03-03T09:19:43.640Z,11.34
2023-03-03T09:22:23.023Z,11.19
2023-03-03T09:24:53.878Z,11.01
2023-03-03T09:27:34.304Z,11.20
2023-03-03T09:30:26.949Z,11.01
2023-03-03T09:32:56.218Z,11.09
2023-03-03T09:35:41.215Z,11.47
2023-03-03T09:38:28.172Z,11.44
2023-03-03T09:41:09.731Z,11.29
2023-03-03T09:43:59.740Z,11.37
2023-03-03T09:46:36.670Z,11.32
2023-03-03T09:49:09.096Z,11.63
2023-03-03T09:51:50.165Z,11.66
2023-03-03T09:54:31.065Z,11.96
2023-03-03T09:57:12.098Z,12.15
2023-03-03T09:59:55.073Z,12.21
2023-03-03T10:02:33.521Z,12.41
2023-03-03T10:05:14.429Z,12.38
2023-03-03T10:08:31.224Z,12.41
2023-03-03T10:11:13.297Z,12.40
2023-03-03T10:13:53.963Z,12.18
2023-03-03T10:16:29.440Z,12.07
2023-03-03T10:19:11.681Z,12.10
2023-03-03T10:22:17.450Z,11.63
2023-03-03T10:25:05.146Z,11.07
2023-03-03T10:27:50.048Z,11.49
2023-03-03T10:30:46.211Z,11.37
2023-03-03T10:33:32.820Z,11.64
2023-03-03T10:36:25.407Z,11.44
2023-03-03T10:39:16.260Z,11.19
2023-03-03T10:41:47.002Z,11.21
2023-03-03T10:44:41.087Z,11.50
2023-03-03T10:47:26.660Z,11.73
2023-03-03T10:50:22.835Z,11.72
2023-03-03T10:52:54.296Z,11.79
2023-03-03T10:55:38.320Z,11.50
2023-03-03T10:58:28.824Z,12.26
2023-03-03T11:01:22.335Z,12.25
2023-03-03T11:04:13.217Z,11.71
2023-03-03T11:06:50.896Z,11.74
2023-03-03T11:09:42.730Z,11.84
2023-03-03T11:12:29.499Z,11.69
2023-03-03T11:15:22.343Z,11.68
2023-03-03T11:18:10.241Z,11.68
2023-03-03T11:20:41.634Z,11.73
2023-03-03T11:23:38.004Z,11.42
2023-03-03T11:26:46.067Z,11.30
2023-03-03T11:29:26.314Z,10.90
2023-03-03T11:31:56.982Z,11.25
2023-03-03T11:35:19.130Z,11.26
2023-03-03T11:37:57.681Z,11.18
2023-03-03T11:40:48.858Z,11.76
2023-03-03T11:43:46.040Z,11.49
2023-03-03T11:46:22.513Z,11.51
2023-03-03T11:49:17.281Z,11.71
2023-03-03T11:51:43.774Z,11.64
2023-03-03T11:54:22.748Z,11.61
2023-03-03T11:56:50.211Z,11.70
2023-03-03T11:59:44.336Z,11.75
2023-03-03T12:02:29.297Z,11.96
2023-03-03T12:05:11.713Z,11.98
2023-03-03T12:07:57.807Z,12.21
2023-03-03T12:10:50.923Z,11.88
2023-03-03T12:13:45.295Z,11.34
2023-03-03T12:16:49.197Z,11.51
2023-03-03T12:19:41.033Z,11.56
2023-03-03T12:22:21.703Z,11.67
2023-03-03T12:25:25.935Z,11.45
2023-03-03T12:27:55.647Z,11.31
2023-03-03T12:30:41.128Z,11.45
2023-03-03T12:33:29.733Z,11.35
2023-03-03T12:36:33.520Z,11.55
2023-03-03T12:39:34.732Z,11.54
2023-03-03T12:42:17.261Z,11.31
2023-03-03T12:45:18.845Z,11.40
2023-03-03T12:47:51.731Z,11.65
2023-03-03T12:50:41.548Z,11.16
2023-03-03T12:53:27.604Z,11.75
2023-03-03T12:56:01.484Z,11.34
2023-03-03T12:58:33.982Z,11.59
2023-03-03T13:01:09.554Z,11.92
2023-03-03T13:03:56.204Z,11.75
2023-03-03T13:06:32.973Z,12.07
2023-03-03T13:09:18.311Z,12.01
2023-03-03T13:12:03.450Z,11.99
2023-03-03T13:14:41.684Z,11.16
2023-03-03T13:17:37.074Z,11.54
2023-03-03T13:20:16.510Z,11.84
2023-03-03T13:23:17.715Z,11.85
2023-03-03T13:26:04.994Z,11.92
2023-03-03T13:28:36.971Z,12.15
2023-03-03T13:31:12.584Z,12.18
2023-03-03T13:33:50.108Z,11.92
2023-03-03T13:36:17.589Z,11.60
2023-03-03T13:38:57.667Z,11.34
2023-03-03T13:41:34.914Z,11.41
2023-03-03T13:44:11.870Z,11.64
2023-03-03T13:46:45.476Z,12.15
2023-03-03T13:49:26.414Z,12.00
2023-03-03T13:52:03.360Z,11.71
2023-03-03T13:54:39.786Z,11.57
2023-03-03T13:57:27.604Z,11.58
2023-03-03T14:00:30.904Z,11.62
2023-03-03T14:03:18.235Z,11.39
2023-03-03T14:05:48.583Z,11.24
2023-03-03T14:08:39.755Z,11.56
2023-03-03T14:11:23.900Z,11.45
2023-03-03T14:14:20.759Z,11.55
2023-03-03T14:17:21.842Z,11.57
2023-03-03T14:20:13.296Z,11.57
2023-03-03T14:22:59.332Z,11.58
2023-03-03T14:25:27.162Z,11.62
2023-03-03T14:28:09.730Z,11.73
2023-03-03T14:30:42.396Z,12.11
2023-03-03T14:33:09.410Z,11.87
2023-03-03T14:35:50.386Z,11.57
2023-03-03T14:38:21.983Z,11.50
2023-03-03T14:41:23.106Z,11.63
2023-03-03T14:43:58.793Z,11.50
2023-03-03T14:46:33.645Z,11.27
2023-03-03T14:49:04.325Z,11.28
2023-03-03T14:51:48.796Z,11.22
2023-03-03T14:54:26.857Z,11.37
2023-03-03T14:57:16.562Z,11.27
2023-03-03T15:00:10.718Z,11.40
2023-03-03T15:02:52.593Z,11.42
2023-03-03T15:05:19.140Z,11.38
2023-03-03T15:07:50.152Z,11.38
2023-03-03T15:10:27.949Z,11.35
2023-03-03T15:12:54.752Z,11.35
2023-03-03T15:15:24.761Z,11.25
2023-03-03T15:18:07.257Z,11.27
2023-03-03T15:20:48.292Z,11.19
2023-03-03T15:23:29.712Z,11.15
2023-03-03T15:26:41.460Z,11.09
2023-03-03T15:29:23.212Z,11.02
2023-03-03T15:32:18.970Z,10.77
2023-03-03T15:35:21.802Z,10.63
2023-03-03T15:38:07.411Z,10.62
2023-03-03T15:40:46.011Z,10.57
2023-03-03T15:43:45.200Z,10.36
2023-03-03T15:46:52.412Z,10.29
2023-03-03T15:49:52.953Z,10.30
2023-03-03T15:52:23.576Z,10.21
2023-03-03T15:55:06.882Z,10.28
2023-03-03T15:57:42.455Z,10.17
2023-03-03T16:00:32.785Z,10.06
2023-03-03T16:03:06.499Z,9.97
2023-03-03T16:05:46.627Z,9.81
2023-03-03T16:08:26.000Z,9.76
2023-03-03T16:11:04.530Z,9.68
2023-03-03T16:13:41.451Z,9.68
2023-03-03T16:16:31.096Z,9.69
2023-03-03T16:19:04.061Z,9.49
2023-03-03T16:21:42.717Z,9.37
2023-03-03T16:24:24.243Z,9.37
2023-03-03T16:27:09.353Z,9.10
2023-03-03T16:29:42.555Z,9.06
2023-03-03T16:32:26.397Z,8.92
2023-03-03T16:35:15.904Z,8.85
2023-03-03T16:38:03.594Z,8.80
2023-03-03T16:40:40.090Z,8.64
2023-03-03T16:43:16.769Z,8.57
2023-03-03T16:45:43.408Z,8.49
2023-03-03T16:48:47.569Z,8.39
2023-03-03T16:51:56.228Z,8.17
2023-03-03T16:54:44.261Z,8.11
2023-03-03T16:57:20.910Z,7.99
2023-03-03T17:00:11.062Z,8.01
2023-03-03T17:02:59.902Z,7.82
2023-03-03T17:05:42.449Z,7.66
2023-03-03T17:08:37.893Z,7.54
2023-03-03T17:11:23.363Z,7.38
2023-03-03T17:14:10.951Z,7.29
2023-03-03T17:16:56.657Z,7.24
2023-03-03T17:20:02.732Z,7.13
2023-03-03T17:22:47.843Z,7.01
2023-03-03T17:25:48.219Z,7.03
2023-03-03T17:28:31.736Z,6.90
2023-03-03T17:31:24.224Z,6.86
2023-03-03T17:34:09.640Z,6.82
2023-03-03T17:36:49.774Z,6.68
2023-03-03T17:39:30.727Z,6.65
2023-03-03T17:42:19.172Z,6.70
2023-03-03T17:45:00.697Z,6.57
2023-03-03T17:47:50.181Z,6.38
2023-03-03T17:50:31.875Z,6.46
2023-03-03T17:53:17.605Z,6.22
2023-03-03T17:56:12.053Z,6.29
2023-03-03T17:58:53.575Z,6.15
2023-03-03T18:01:25.983Z,6.03
2023-03-03T18:04:27.712Z,5.95
2023-03-03T18:07:22.070Z,5.78
2023-03-03T18:10:24.504Z,5.82
2023-03-03T18:13:30.752Z,5.64
2023-03-03T18:16:11.679Z,5.42
2023-03-03T18:19:02.766Z,5.50
2023-03-03T18:21:35.374Z,5.45
2023-03-03T18:24:29.053Z,5.44
2023-03-03T18:26:56.636Z,5.37
2023-03-03T18:29:30.578Z,5.37
2023-03-03T18:32:04.285Z,5.39
2023-03-03T18:34:36.306Z,5.29
2023-03-03T18:37:09.528Z,5.19
2023-03-03T18:39:41.153Z,4.97
2023-03-03T18:42:35.169Z,4.97
2023-03-03T18:45:27.163Z,4.78
2023-03-03T18:48:05.401Z,4.76
2023-03-03T18:50:47.148Z,4.74
2023-03-03T18:53:18.095Z,4.66
2023-03-03T18:55:45.978Z,4.59
2023-03-03T18:58:15.483Z,4.65
2023-03-03T19:00:44.544Z,4.63
2023-03-03T19:03:50.742Z,4.53
2023-03-03T19:06:52.405Z,4.24
2023-03-03T19:09:39.832Z,4.00
2023-03-03T19:12:11.096Z,3.82
2023-03-03T19:14:40.725Z,3.77
2023-03-03T19:17:16.378Z,3.91
2023-03-03T19:20:08.863Z,3.82
2023-03-03T19:23:03.080Z,3.79
2023-03-03T19:25:33.996Z,3.64
2023-03-03T19:28:30.432Z,3.52
2023-03-03T19:31:06.261Z,3.59
2023-03-03T19:34:00.701Z,3.59
2023-03-03T19:36:30.258Z,3.59
2023-03-03T19:39:13.288Z,3.60
2023-03-03T19:41:52.664Z,3.56
2023-03-03T19:44:51.304Z,3.26
2023-03-03T19:47:29.255Z,3.30
2023-03-03T19:50:07.004Z,3.27
2023-03-03T19:53:07.493Z,2.89
2023-03-03T19:56:11.472Z,2.94
2023-03-03T19:59:03.035Z,3.05
2023-03-03T20:01:45.581Z,2.92
2023-03-03T20:04:29.124Z,3.05
2023-03-03T20:07:18.526Z,2.78
2023-03-03T20:10:16.113Z,2.72
2023-03-03T20:13:00.085Z,2.76
2023-03-03T20:15:40.445Z,2.64
2023-03-03T20:18:26.414Z,2.71
2023-03-03T20:21:00.837Z,2.69
2023-03-03T20:23:46.924Z,2.32
2023-03-03T20:26:28.803Z,2.27
2023-03-03T20:29:35.322Z,2.35
2023-03-03T20:32:28.102Z,2.38
2023-03-03T20:35:00.631Z,2.45
2023-03-03T20:38:05.750Z,1.94
2023-03-03T20:40:50.856Z,2.05
2023-03-03T20:43:39.574Z,1.96
2023-03-03T20:46:36.157Z,1.79
2023-03-03T20:49:38.179Z,1.76
2023-03-03T20:52:31.597Z,1.77
2023-03-03T20:55:18.320Z,1.84
2023-03-03T20:58:05.272Z,1.91
2023-03-03T21:00:35.662Z,1.78
2023-03-03T21:03:30.167Z,1.71
2023-03-03T21:06:15.440Z,1.67
2023-03-03T21:08:46.846Z,1.47
2023-03-03T21:11:18.623Z,1.57
2023-03-03T21:13:54.373Z,1.40
2023-03-03T21:16:20.978Z,1.48
2023-03-03T21:18:57.495Z,1.36
2023-03-03T21:21:30.145Z,1.45
2023-03-03T21:23:57.175Z,1.39
2023-03-03T21:26:59.016Z,1.39
2023-03-03T21:29:35.941Z,1.41
2023-03-03T21:32:05.386Z,1.34
2023-03-03T21:34:33.852Z,1.31
2023-03-03T21:37:02.187Z,1.25
2023-03-03T21:39:46.845Z,1.04
2023-03-03T21:42:19.545Z,0.97
2023-03-03T21:44:52.453Z,0.84
2023-03-03T21:47:21.547Z,0.87
2023-03-03T21:49:50.708Z,0.74
2023-03-03T21:52:32.844Z,0.60
2023-03-03T21:54:59.172Z,0.35
2023-03-03T21:57:25.897Z,0.32
2023-03-03T21:59:54.372Z,0.27
2023-03-03T22:02:20.871Z,0.10
2023-03-03T22:04:47.472Z,0.01
2023-03-03T22:07:14.064Z,0.24
2023-03-03T22:09:40.612Z,0.34
2023-03-03T22:12:07.462Z,0.31
2023-03-03T22:14:34.382Z,0.39
2023-03-03T22:17:06.696Z,0.44
2023-03-03T22:19:34.248Z,0.36
2023-03-03T22:22:00.844Z,0.30
2023-03-03T22:24:29.527Z,0.02
2023-03-03T22:26:56.282Z,0.21
2023-03-03T22:29:23.258Z,0.02
2023-03-03T22:31:51.237Z,0.06
2023-03-03T22:34:17.982Z,-0.02
2023-03-03T22:36:44.501Z,0.05
2023-03-03T22:39:11.033Z,0.02
2023-03-03T22:41:38.331Z,-0.02
2023-03-03T22:44:05.030Z,0.18
2023-03-03T22:46:33.609Z,0.08
2023-03-03T22:49:00.106Z,-0.08
2023-03-03T22:51:26.556Z,0.19
2023-03-03T22:53:53.100Z,0.09
2023-03-03T22:56:19.653Z,-0.14
2023-03-03T22:58:46.249Z,-0.09
2023-03-03T23:01:12.810Z,0.15
2023-03-03T23:03:39.455Z,0.13
2023-03-03T23:06:06.399Z,-0.17
2023-03-03T23:08:33.026Z,-0.17
2023-03-03T23:10:59.638Z,-0.21
2023-03-03T23:13:27.371Z,-0.17
2023-03-03T23:15:53.954Z,-0.41
2023-03-03T23:18:20.509Z,-0.24
2023-03-03T23:20:46.984Z,-0.27
2023-03-03T23:23:13.477Z,-0.42
2023-03-03T23:25:39.966Z,-0.40
2023-03-03T23:28:06.878Z,-0.33
2023-03-03T23:30:34.793Z,-0.46
2023-03-03T23:33:01.487Z,-0.43
2023-03-03T23:35:28.084Z,-0.34
2023-03-03T23:37:54.547Z,-0.17
2023-03-03T23:40:21.207Z,-0.56
2023-03-03T23:42:47.875Z,-0.31
2023-03-03T23:45:14.760Z,-0.30
2023-03-03T23:47:41.618Z,-0.43
2023-03-03T23:50:10.089Z,-0.38
2023-03-03T23:52:37.942Z,-0.49
2023-03-03T23:55:05.201Z,-0.52
2023-03-03T23:57:31.956Z,-0.53
2023-03-03T23:59:58.982Z,-0.69
